createdAt,value
2019-02-04T00:00:37.449Z,8.08
2019-02-04T00:03:07.713Z,9.25
2019-02-04T00:05:37.571Z,11.33
2019-02-04T00:08:07.488Z,8.10
2019-02-04T00:10:37.490Z,5.72
2019-02-04T00:13:08.466Z,5.83
2019-02-04T00:15:38.411Z,5.20
2019-02-04T00:18:09.314Z,8.70
2019-02-04T00:20:39.197Z,8.73
2019-02-04T00:23:09.235Z,11.70
2019-02-04T00:25:39.567Z,14.33
2019-02-04T00:28:09.537Z,4.15
2019-02-04T00:30:40.293Z,7.75
2019-02-04T00:33:10.370Z,6.58
2019-02-04T00:35:40.517Z,10.10
2019-02-04T00:38:24.928Z,7.67
2019-02-04T00:40:54.867Z,7.87
2019-02-04T00:43:27.709Z,7.65
2019-02-04T00:45:57.535Z,4.30
2019-02-04T00:48:27.509Z,8.78
2019-02-04T00:50:57.489Z,9.05
2019-02-04T00:53:27.558Z,8.53
2019-02-04T00:55:57.597Z,6.80
2019-02-04T00:58:27.640Z,8.80
2019-02-04T01:00:57.661Z,5.90
2019-02-04T01:03:27.983Z,7.55
2019-02-04T01:05:58.161Z,10.53
2019-02-04T01:08:28.201Z,4.90
2019-02-04T01:10:58.979Z,6.92
2019-02-04T01:13:28.971Z,4.75
2019-02-04T01:15:59.007Z,6.87
2019-02-04T01:18:28.956Z,9.03
2019-02-04T01:20:58.949Z,7.10
2019-02-04T01:23:28.839Z,4.65
2019-02-04T01:25:58.655Z,8.55
2019-02-04T01:28:28.620Z,10.48
2019-02-04T01:30:58.573Z,10.40
2019-02-04T01:33:28.487Z,12.35
2019-02-04T01:35:58.386Z,7.85
2019-02-04T01:38:28.291Z,13.38
2019-02-04T01:40:58.332Z,8.55
2019-02-04T01:43:28.478Z,8.15
2019-02-04T01:46:00.851Z,10.30
2019-02-04T01:48:30.438Z,6.03
2019-02-04T01:51:00.350Z,7.47
2019-02-04T01:53:31.106Z,10.05
2019-02-04T01:56:01.098Z,3.02
2019-02-04T01:58:36.264Z,8.18
2019-02-04T02:01:06.277Z,11.40
2019-02-04T02:03:37.859Z,8.05
2019-02-04T02:06:07.877Z,15.98
2019-02-04T02:08:37.836Z,6.05
2019-02-04T02:11:07.787Z,6.35
2019-02-04T02:13:37.668Z,5.20
2019-02-04T02:16:07.932Z,11.65
2019-02-04T02:18:37.800Z,12.45
2019-02-04T02:21:08.678Z,9.93
2019-02-04T02:23:39.213Z,11.65
2019-02-04T02:26:11.637Z,5.25
2019-02-04T02:28:41.991Z,7.00
2019-02-04T02:31:11.966Z,14.50
2019-02-04T02:33:42.232Z,9.05
2019-02-04T02:36:12.223Z,6.25
2019-02-04T02:38:42.402Z,6.28
2019-02-04T02:41:12.363Z,7.35
2019-02-04T02:43:43.122Z,12.47
2019-02-04T02:46:13.036Z,12.03
2019-02-04T02:48:42.977Z,7.87
2019-02-04T02:51:12.865Z,9.88
2019-02-04T02:53:43.876Z,6.75
2019-02-04T02:56:13.816Z,8.75
2019-02-04T02:58:43.787Z,6.60
2019-02-04T03:01:13.664Z,11.05
2019-02-04T03:03:43.750Z,7.35
2019-02-04T03:06:13.620Z,16.23
2019-02-04T03:08:43.452Z,11.12
2019-02-04T03:11:13.371Z,7.00
2019-02-04T03:13:43.313Z,9.45
2019-02-04T03:16:13.516Z,10.58
2019-02-04T03:18:43.426Z,10.40
2019-02-04T03:21:13.337Z,7.53
2019-02-04T03:23:43.238Z,6.47
2019-02-04T03:26:13.195Z,13.68
2019-02-04T03:28:43.351Z,10.48
2019-02-04T03:31:13.624Z,11.33
2019-02-04T03:33:43.497Z,5.78
2019-02-04T03:36:13.487Z,11.68
2019-02-04T03:38:43.495Z,12.88
2019-02-04T03:41:14.084Z,10.23
2019-02-04T03:43:44.180Z,11.05
2019-02-04T03:46:14.121Z,8.00
2019-02-04T03:48:44.074Z,12.80
2019-02-04T03:51:13.970Z,10.80
2019-02-04T03:53:43.883Z,12.55
2019-02-04T03:56:13.799Z,12.35
2019-02-04T03:58:50.587Z,14.20
2019-02-04T04:01:25.179Z,20.68
2019-02-04T04:03:55.114Z,11.63
2019-02-04T04:06:25.371Z,12.88
2019-02-04T04:08:57.514Z,14.63
2019-02-04T04:11:29.169Z,13.93
2019-02-04T04:13:59.215Z,14.33
2019-02-04T04:16:31.227Z,15.35
2019-02-04T04:19:01.200Z,18.07
2019-02-04T04:21:31.656Z,17.62
2019-02-04T04:24:02.950Z,16.87
2019-02-04T04:26:35.623Z,15.48
2019-02-04T04:29:12.599Z,17.50
2019-02-04T04:31:46.807Z,13.72
2019-02-04T04:34:16.812Z,14.07
2019-02-04T04:36:46.617Z,20.82
2019-02-04T04:39:17.761Z,22.40
2019-02-04T04:41:47.693Z,16.75
2019-02-04T04:44:19.376Z,14.30
2019-02-04T04:46:52.779Z,15.32
2019-02-04T04:49:22.674Z,24.25
2019-02-04T04:51:52.579Z,21.50
2019-02-04T04:54:26.999Z,21.50
2019-02-04T04:56:58.525Z,19.00
2019-02-04T04:59:34.244Z,19.48
2019-02-04T05:02:04.390Z,24.95
2019-02-04T05:04:34.421Z,23.15
2019-02-04T05:07:04.377Z,28.12
2019-02-04T05:09:34.542Z,25.02
2019-02-04T05:12:04.740Z,26.90
2019-02-04T05:14:35.217Z,28.15
2019-02-04T05:17:10.172Z,27.65
2019-02-04T05:19:40.214Z,26.82
2019-02-04T05:22:10.564Z,26.42
2019-02-04T05:24:40.582Z,33.20
2019-02-04T05:27:10.521Z,34.50
2019-02-04T05:29:43.658Z,32.83
2019-02-04T05:32:16.062Z,36.58
2019-02-04T05:34:48.586Z,33.67
2019-02-04T05:37:18.652Z,29.00
2019-02-04T05:39:48.689Z,28.92
2019-02-04T05:42:20.549Z,36.90
2019-02-04T05:44:50.252Z,35.80
2019-02-04T05:47:25.076Z,36.33
2019-02-04T05:49:58.760Z,34.50
2019-02-04T05:52:28.635Z,36.08
2019-02-04T05:54:58.604Z,38.25
2019-02-04T05:57:28.486Z,37.17
2019-02-04T05:59:58.690Z,40.67
2019-02-04T06:02:28.675Z,37.93
2019-02-04T06:04:58.586Z,36.70
2019-02-04T06:07:28.510Z,41.00
2019-02-04T06:09:58.478Z,44.42
2019-02-04T06:12:28.365Z,38.20
2019-02-04T06:14:58.305Z,48.48
2019-02-04T06:17:28.264Z,39.55
2019-02-04T06:19:58.422Z,47.95
2019-02-04T06:22:28.762Z,48.48
2019-02-04T06:24:58.802Z,41.25
2019-02-04T06:27:29.152Z,47.62
2019-02-04T06:29:59.272Z,51.65
2019-02-04T06:32:30.346Z,49.73
2019-02-04T06:35:00.436Z,51.05
2019-02-04T06:37:30.448Z,51.30
2019-02-04T06:40:00.443Z,46.63
2019-02-04T06:42:30.354Z,46.98
2019-02-04T06:45:00.317Z,52.38
2019-02-04T06:47:30.185Z,50.67
2019-02-04T06:50:00.275Z,50.78
2019-02-04T06:52:30.257Z,50.70
2019-02-04T06:55:00.349Z,39.23
2019-02-04T06:57:30.429Z,45.05
2019-02-04T07:00:00.463Z,46.98
2019-02-04T07:02:30.387Z,48.55
2019-02-04T07:05:00.363Z,45.00
2019-02-04T07:07:30.272Z,45.83
2019-02-04T07:10:00.315Z,41.60
2019-02-04T07:12:30.255Z,43.17
2019-02-04T07:15:00.279Z,45.43
2019-02-04T07:17:30.167Z,49.35
2019-02-04T07:20:00.314Z,42.33
2019-02-04T07:22:30.679Z,38.60
2019-02-04T07:25:00.861Z,44.27
2019-02-04T07:27:30.897Z,40.95
2019-02-04T07:30:01.037Z,41.20
2019-02-04T07:32:31.115Z,40.73
2019-02-04T07:35:01.098Z,35.43
2019-02-04T07:37:31.419Z,37.13
2019-02-04T07:40:01.611Z,33.67
2019-02-04T07:42:32.016Z,38.73
2019-02-04T07:45:02.054Z,39.63
2019-02-04T07:47:33.103Z,32.28
2019-02-04T07:50:03.335Z,34.75
2019-02-04T07:52:33.138Z,37.35
2019-02-04T07:55:03.173Z,32.25
2019-02-04T07:57:33.039Z,39.70
2019-02-04T08:00:03.063Z,34.67
2019-02-04T08:02:33.115Z,34.38
2019-02-04T08:05:03.410Z,29.63
2019-02-04T08:07:33.351Z,35.92
2019-02-04T08:10:03.271Z,30.12
2019-02-04T08:12:33.127Z,34.45
2019-02-04T08:15:03.011Z,36.88
2019-02-04T08:17:33.105Z,30.60
2019-02-04T08:20:03.164Z,29.00
2019-02-04T08:22:33.248Z,32.65
2019-02-04T08:25:03.088Z,33.92
2019-02-04T08:27:33.033Z,29.72
2019-02-04T08:30:05.727Z,36.20
2019-02-04T08:32:35.955Z,31.62
2019-02-04T08:35:06.047Z,30.25
2019-02-04T08:37:36.099Z,30.50
2019-02-04T08:40:06.546Z,31.45
2019-02-04T08:42:36.587Z,29.23
2019-02-04T08:45:06.968Z,26.60
2019-02-04T08:47:37.009Z,26.65
2019-02-04T08:50:08.151Z,27.20
2019-02-04T08:52:38.090Z,35.60
2019-02-04T08:55:08.857Z,26.00
2019-02-04T08:57:38.904Z,26.75
2019-02-04T09:00:10.641Z,25.10
2019-02-04T09:02:41.758Z,26.48
2019-02-04T09:05:12.433Z,23.80
2019-02-04T09:07:42.309Z,21.87
2019-02-04T09:10:15.175Z,26.05
2019-02-04T09:12:45.115Z,22.05
2019-02-04T09:15:16.353Z,25.65
2019-02-04T09:17:46.397Z,24.35
2019-02-04T09:20:16.868Z,23.12
2019-02-04T09:22:46.771Z,25.50
2019-02-04T09:25:17.098Z,21.50
2019-02-04T09:27:47.173Z,23.35
2019-02-04T09:30:19.304Z,19.55
2019-02-04T09:32:49.305Z,20.17
2019-02-04T09:35:20.074Z,19.48
2019-02-04T09:37:50.227Z,20.72
2019-02-04T09:40:41.068Z,17.62
2019-02-04T09:43:11.724Z,19.55
2019-02-04T09:45:43.127Z,19.17
2019-02-04T09:48:16.468Z,17.95
2019-02-04T09:50:49.742Z,19.30
2019-02-04T09:53:19.798Z,19.10
2019-02-04T09:55:49.872Z,18.73
2019-02-04T09:58:19.763Z,17.62
2019-02-04T10:00:49.622Z,14.65
2019-02-04T10:03:19.434Z,16.75
2019-02-04T10:05:49.902Z,13.75
2019-02-04T10:08:20.354Z,15.38
2019-02-04T10:10:50.733Z,15.80
2019-02-04T10:13:20.891Z,13.83
2019-02-04T10:15:51.886Z,15.38
2019-02-04T10:18:23.160Z,17.37
2019-02-04T10:20:53.063Z,14.35
2019-02-04T10:23:22.954Z,11.85
2019-02-04T10:25:52.857Z,12.73
2019-02-04T10:28:22.779Z,15.75
2019-02-04T10:30:52.806Z,11.93
2019-02-04T10:33:22.742Z,10.20
2019-02-04T10:35:52.725Z,12.98
2019-02-04T10:38:22.614Z,16.85
2019-02-04T10:40:52.590Z,11.65
2019-02-04T10:43:22.601Z,13.95
2019-02-04T10:45:52.832Z,13.55
2019-02-04T10:48:22.682Z,12.70
2019-02-04T10:50:52.890Z,15.35
2019-02-04T10:53:22.859Z,14.73
2019-02-04T10:55:53.607Z,17.65
2019-02-04T10:58:23.739Z,12.80
2019-02-04T11:00:53.589Z,10.60
2019-02-04T11:03:23.659Z,12.03
2019-02-04T11:05:53.682Z,10.32
2019-02-04T11:08:23.635Z,11.18
2019-02-04T11:10:53.500Z,11.60
2019-02-04T11:13:25.475Z,12.68
2019-02-04T11:15:55.369Z,12.30
2019-02-04T11:18:27.311Z,10.05
2019-02-04T11:20:59.644Z,11.75
2019-02-04T11:23:29.864Z,12.88
2019-02-04T11:26:00.984Z,16.45
2019-02-04T11:28:31.746Z,15.60
2019-02-04T11:31:08.347Z,21.90
2019-02-04T11:33:38.399Z,13.45
2019-02-04T11:36:08.338Z,15.20
2019-02-04T11:38:38.810Z,22.17
2019-02-04T11:41:09.033Z,15.18
2019-02-04T11:43:39.050Z,17.52
2019-02-04T11:46:09.201Z,16.40
2019-02-04T11:48:39.316Z,16.00
2019-02-04T11:51:10.173Z,12.63
2019-02-04T11:53:40.241Z,12.43
2019-02-04T11:56:10.242Z,13.93
2019-02-04T11:58:40.190Z,12.95
2019-02-04T12:01:10.265Z,13.78
2019-02-04T12:03:41.441Z,16.30
2019-02-04T12:06:11.557Z,13.22
2019-02-04T12:08:42.155Z,12.00
2019-02-04T12:11:17.560Z,14.33
2019-02-04T12:13:47.917Z,13.10
2019-02-04T12:16:17.995Z,15.93
2019-02-04T12:18:48.305Z,13.28
2019-02-04T12:21:21.653Z,14.95
2019-02-04T12:23:51.999Z,11.03
2019-02-04T12:26:21.997Z,15.43
2019-02-04T12:28:52.035Z,16.20
2019-02-04T12:31:22.478Z,15.85
2019-02-04T12:33:52.443Z,13.40
2019-02-04T12:36:23.147Z,14.18
2019-02-04T12:38:55.285Z,18.40
2019-02-04T12:41:25.472Z,12.82
2019-02-04T12:43:55.419Z,12.25
2019-02-04T12:46:25.458Z,14.83
2019-02-04T12:48:55.575Z,12.98
2019-02-04T12:51:33.330Z,11.83
2019-02-04T12:53:57.801Z,18.60
2019-02-04T12:56:27.714Z,16.00
2019-02-04T12:58:57.982Z,12.37
2019-02-04T13:01:27.927Z,14.03
2019-02-04T13:03:58.022Z,17.60
2019-02-04T13:06:28.102Z,12.63
2019-02-04T13:08:58.055Z,11.35
2019-02-04T13:11:28.113Z,19.42
2019-02-04T13:13:58.069Z,12.10
2019-02-04T13:16:29.624Z,17.00
2019-02-04T13:18:59.750Z,13.60
2019-02-04T13:21:30.514Z,15.18
2019-02-04T13:24:01.773Z,15.50
2019-02-04T13:26:56.100Z,16.62
2019-02-04T13:29:27.649Z,13.58
2019-02-04T13:31:59.365Z,12.95
2019-02-04T13:34:30.029Z,9.83
2019-02-04T13:37:00.140Z,10.82
2019-02-04T13:39:31.466Z,14.55
2019-02-04T13:42:01.710Z,12.18
2019-02-04T13:44:31.988Z,15.10
2019-02-04T13:47:02.077Z,13.35
2019-02-04T13:49:32.092Z,13.35
2019-02-04T13:52:02.214Z,14.25
2019-02-04T13:54:32.169Z,13.90
2019-02-04T13:57:03.720Z,12.03
2019-02-04T13:59:33.723Z,9.90
2019-02-04T14:02:05.331Z,12.23
2019-02-04T14:04:35.566Z,12.35
2019-02-04T14:07:05.702Z,12.80
2019-02-04T14:09:35.678Z,12.85
2019-02-04T14:12:06.278Z,9.53
2019-02-04T14:14:38.090Z,13.38
2019-02-04T14:17:08.106Z,15.72
2019-02-04T14:19:38.160Z,12.45
2019-02-04T14:22:09.748Z,9.80
2019-02-04T14:24:39.772Z,15.40
2019-02-04T14:27:10.084Z,9.98
2019-02-04T14:29:42.300Z,13.00
2019-02-04T14:32:12.493Z,12.28
2019-02-04T14:34:46.118Z,10.55
2019-02-04T14:37:17.418Z,11.50
2019-02-04T14:39:47.581Z,10.90
2019-02-04T14:42:21.925Z,14.80
2019-02-04T14:45:33.100Z,10.48
2019-02-04T14:48:35.590Z,15.13
2019-02-04T14:51:41.063Z,12.28
2019-02-04T14:55:06.978Z,9.05
2019-02-04T14:58:35.809Z,12.47
2019-02-04T15:01:49.961Z,13.20
2019-02-04T15:05:09.798Z,8.70
2019-02-04T15:08:10.884Z,8.60
2019-02-04T15:11:05.471Z,17.30
2019-02-04T15:14:27.051Z,13.13
2019-02-04T15:17:33.399Z,10.32
2019-02-04T15:20:30.487Z,11.93
2019-02-04T15:23:43.209Z,9.58
2019-02-04T15:26:52.606Z,9.30
2019-02-04T15:29:46.786Z,11.05
2019-02-04T15:32:38.703Z,7.10
2019-02-04T15:35:42.465Z,9.05
2019-02-04T15:38:38.838Z,9.80
2019-02-04T15:41:49.453Z,9.50
2019-02-04T15:44:55.811Z,7.42
2019-02-04T15:47:53.151Z,10.05
2019-02-04T15:51:05.921Z,7.47
2019-02-04T15:53:35.804Z,8.05
2019-02-04T15:56:07.413Z,11.50
2019-02-04T15:58:49.994Z,9.80
2019-02-04T16:01:20.285Z,12.75
2019-02-04T16:03:52.983Z,11.30
2019-02-04T16:06:26.246Z,8.38
2019-02-04T16:09:08.932Z,9.98
2019-02-04T16:11:40.333Z,8.80
2019-02-04T16:14:16.148Z,7.83
2019-02-04T16:17:04.471Z,9.73
2019-02-04T16:19:30.140Z,9.98
2019-02-04T16:22:15.145Z,12.35
2019-02-04T16:24:41.950Z,9.15
2019-02-04T16:28:07.614Z,12.78
2019-02-04T16:30:41.743Z,9.40
2019-02-04T16:33:15.631Z,8.13
2019-02-04T16:35:45.696Z,11.63
2019-02-04T16:38:15.765Z,8.73
2019-02-04T16:40:47.186Z,9.00
2019-02-04T16:43:17.737Z,12.55
2019-02-04T16:45:47.728Z,17.30
2019-02-04T16:48:17.666Z,13.90
2019-02-04T16:51:03.450Z,16.52
2019-02-04T16:53:21.630Z,12.03
2019-02-04T16:55:52.318Z,8.95
2019-02-04T16:58:22.593Z,8.80
2019-02-04T17:00:53.038Z,8.25
2019-02-04T17:03:23.035Z,9.25
2019-02-04T17:05:53.138Z,7.08
2019-02-04T17:08:23.187Z,12.07
2019-02-04T17:10:53.374Z,9.40
2019-02-04T17:13:23.292Z,4.37
2019-02-04T17:15:53.247Z,6.47
2019-02-04T17:18:23.350Z,12.03
2019-02-04T17:21:04.354Z,8.00
2019-02-04T17:23:37.475Z,9.13
2019-02-04T17:26:07.474Z,11.83
2019-02-04T17:28:37.629Z,9.13
2019-02-04T17:31:07.596Z,7.72
2019-02-04T17:33:37.674Z,7.83
2019-02-04T17:36:08.126Z,6.80
2019-02-04T17:38:38.088Z,6.12
2019-02-04T17:41:08.128Z,10.60
2019-02-04T17:43:38.021Z,10.15
2019-02-04T17:46:09.558Z,7.60
2019-02-04T17:48:41.511Z,9.73
2019-02-04T17:51:36.176Z,6.85
2019-02-04T17:54:07.195Z,5.67
2019-02-04T17:56:47.069Z,8.50
2019-02-04T17:59:17.521Z,7.92
2019-02-04T18:01:50.523Z,11.63
2019-02-04T18:04:21.009Z,13.08
2019-02-04T18:06:51.799Z,6.50
2019-02-04T18:09:21.952Z,9.68
2019-02-04T18:11:51.981Z,7.30
2019-02-04T18:14:23.635Z,9.08
2019-02-04T18:16:53.679Z,9.85
2019-02-04T18:19:23.609Z,7.67
2019-02-04T18:21:53.627Z,8.80
2019-02-04T18:24:23.834Z,7.80
2019-02-04T18:26:54.462Z,9.98
2019-02-04T18:29:24.545Z,6.75
2019-02-04T18:31:55.219Z,8.78
2019-02-04T18:34:26.152Z,9.25
2019-02-04T18:36:56.465Z,7.95
2019-02-04T18:39:26.625Z,9.45
2019-02-04T18:41:57.135Z,8.18
2019-02-04T18:44:27.256Z,14.07
2019-02-04T18:46:57.113Z,6.85
2019-02-04T18:49:27.165Z,7.50
2019-02-04T18:51:57.181Z,10.85
2019-02-04T18:54:27.783Z,7.47
2019-02-04T18:56:57.843Z,10.05
2019-02-04T18:59:27.575Z,11.20
2019-02-04T19:01:57.655Z,12.90
2019-02-04T19:04:27.788Z,9.15
2019-02-04T19:06:57.669Z,12.33
2019-02-04T19:09:27.728Z,8.20
2019-02-04T19:11:57.741Z,9.43
2019-02-04T19:14:28.000Z,9.55
2019-02-04T19:16:58.061Z,9.13
2019-02-04T19:19:32.059Z,11.73
2019-02-04T19:22:02.253Z,10.25
2019-02-04T19:24:32.400Z,9.73
2019-02-04T19:27:02.604Z,10.85
2019-02-04T19:29:33.055Z,10.70
2019-02-04T19:32:03.689Z,14.45
2019-02-04T19:34:33.740Z,9.83
2019-02-04T19:37:06.519Z,11.10
2019-02-04T19:39:36.997Z,12.18
2019-02-04T19:42:09.249Z,10.35
2019-02-04T19:44:39.869Z,13.55
2019-02-04T19:47:09.831Z,8.08
2019-02-04T19:49:39.927Z,10.30
2019-02-04T19:52:09.895Z,11.28
2019-02-04T19:54:41.066Z,10.08
2019-02-04T19:57:11.162Z,11.57
2019-02-04T19:59:46.867Z,9.33
2019-02-04T20:02:17.398Z,11.63
2019-02-04T20:04:47.501Z,7.95
2019-02-04T20:07:18.338Z,10.30
2019-02-04T20:09:50.178Z,6.80
2019-02-04T20:12:21.933Z,10.10
2019-02-04T20:14:52.292Z,9.38
2019-02-04T20:17:22.448Z,10.93
2019-02-04T20:19:55.312Z,9.65
2019-02-04T20:22:28.266Z,6.40
2019-02-04T20:24:58.624Z,8.60
2019-02-04T20:27:31.942Z,11.03
2019-02-04T20:30:03.705Z,9.10
2019-02-04T20:32:38.231Z,8.60
2019-02-04T20:35:10.106Z,7.92
2019-02-04T20:37:40.624Z,9.98
2019-02-04T20:40:12.111Z,8.03
2019-02-04T20:42:42.576Z,6.47
2019-02-04T20:45:13.228Z,9.15
2019-02-04T20:47:43.805Z,11.63
2019-02-04T20:50:17.632Z,8.65
2019-02-04T20:52:47.840Z,10.18
2019-02-04T20:55:19.557Z,7.85
2019-02-04T20:57:50.296Z,9.05
2019-02-04T21:00:22.472Z,7.20
2019-02-04T21:02:52.503Z,9.43
2019-02-04T21:05:22.778Z,8.00
2019-02-04T21:07:52.918Z,8.68
2019-02-04T21:10:23.855Z,8.28
2019-02-04T21:12:56.887Z,8.98
2019-02-04T21:15:27.068Z,8.58
2019-02-04T21:17:57.134Z,7.08
2019-02-04T21:20:28.886Z,9.30
2019-02-04T21:22:58.924Z,7.72
2019-02-04T21:25:28.995Z,6.53
2019-02-04T21:27:59.326Z,7.90
2019-02-04T21:30:31.949Z,9.48
2019-02-04T21:33:02.150Z,7.33
2019-02-04T21:35:32.368Z,8.48
2019-02-04T21:38:02.566Z,6.85
2019-02-04T21:40:33.121Z,8.00
2019-02-04T21:43:03.084Z,8.25
2019-02-04T21:45:33.260Z,9.13
2019-02-04T21:48:03.373Z,9.15
2019-02-04T21:50:36.165Z,5.40
2019-02-04T21:53:06.434Z,5.05
2019-02-04T21:55:36.486Z,7.08
2019-02-04T21:58:06.798Z,6.12
2019-02-04T22:00:38.610Z,7.42
2019-02-04T22:03:08.650Z,5.33
2019-02-04T22:05:38.590Z,4.58
2019-02-04T22:08:08.637Z,4.42
2019-02-04T22:10:40.729Z,6.75
2019-02-04T22:13:12.803Z,5.72
2019-02-04T22:15:42.640Z,9.15
2019-02-04T22:18:12.779Z,7.47
2019-02-04T22:20:42.948Z,8.73
2019-02-04T22:23:12.917Z,6.00
2019-02-04T22:25:43.146Z,6.65
2019-02-04T22:28:13.056Z,8.05
2019-02-04T22:30:43.255Z,8.23
2019-02-04T22:33:13.182Z,12.20
2019-02-04T22:35:43.089Z,6.33
2019-02-04T22:38:13.030Z,7.33
2019-02-04T22:40:42.860Z,6.08
2019-02-04T22:43:12.978Z,8.43
2019-02-04T22:45:45.864Z,5.83
2019-02-04T22:48:15.830Z,10.38
2019-02-04T22:50:45.951Z,6.20
2019-02-04T22:53:16.025Z,9.43
2019-02-04T22:55:47.009Z,5.30
2019-02-04T22:58:17.000Z,6.40
2019-02-04T23:01:23.638Z,6.33
2019-02-04T23:03:53.552Z,5.95
2019-02-04T23:06:23.488Z,4.58
2019-02-04T23:08:53.467Z,5.97
2019-02-04T23:11:23.817Z,7.37
2019-02-04T23:13:54.458Z,9.10
2019-02-04T23:16:24.803Z,6.78
2019-02-04T23:18:54.922Z,7.83
2019-02-04T23:21:24.896Z,6.08
2019-02-04T23:23:56.413Z,7.55
2019-02-04T23:26:26.423Z,9.90
2019-02-04T23:28:56.376Z,8.33
2019-02-04T23:31:27.723Z,7.35
2019-02-04T23:33:57.747Z,7.25
2019-02-04T23:36:27.643Z,6.50
2019-02-04T23:38:57.585Z,7.78
2019-02-04T23:41:29.283Z,10.50
2019-02-04T23:43:59.167Z,6.40
2019-02-04T23:46:30.109Z,5.75
2019-02-04T23:49:00.093Z,10.48
2019-02-04T23:51:30.069Z,7.95
2019-02-04T23:53:59.961Z,6.00
2019-02-04T23:56:29.937Z,4.90
2019-02-04T23:58:59.895Z,8.45
